| time (UTC) | temp F | wind direction | speed knots | gust knots | rain 1hr in | rain 24hr in | rain mn in | humidity % | barometer mb |
| 20260906220039 | 95 | 69 | 2.6 | 0.0 | 0.00 | 0.00 | 0.00 | 35 | 1004.4 |
| 20260906214540 | 94 | 123 | 2.6 | 0.0 | 0.00 | 0.00 | 0.00 | 35 | 1004.7 |
| 20260906213036 | 94 | 114 | 2.6 | 0.0 | 0.00 | 0.00 | 0.00 | 35 | 1004.8 |
| 20260906211541 | 98 | 63 | 3.5 | 0.0 | 0.00 | 0.00 | 0.00 | 31 | 1004.8 |
| 20260906210035 | 96 | 148 | 3.5 | 0.0 | 0.00 | 0.00 | 0.00 | 33 | 1005.2 |
| 20260906204534 | 94 | 155 | 2.6 | 0.0 | 0.00 | 0.00 | 0.00 | 34 | 1005.4 |
| 20260906203030 | 96 | 146 | 3.5 | 0.0 | 0.00 | 0.00 | 0.00 | 34 | 1005.7 |
| 20260906201529 | 97 | 59 | 3.5 | 0.0 | 0.00 | 0.00 | 0.00 | 33 | 1005.7 |
| 20260906200038 | 96 | 59 | 3.5 | 0.0 | 0.00 | 0.00 | 0.00 | 34 | 1005.8 |
| 20260906194525 | 95 | 138 | 3.5 | 0.0 | 0.00 | 0.00 | 0.00 | 35 | 1006.0 |
| 20260906193024 | 95 | 106 | 1.7 | 0.0 | 0.00 | 0.00 | 0.00 | 37 | 1006.2 |
| 20260906191535 | 94 | 145 | 3.5 | 0.0 | 0.00 | 0.00 | 0.00 | 37 | 1006.4 |
| 20260906190026 | 94 | 56 | 2.6 | 0.0 | 0.00 | 0.00 | 0.00 | 38 | 1006.6 |
| 20260906184523 | 93 | 155 | 3.5 | 0.0 | 0.00 | 0.00 | 0.00 | 39 | 1006.6 |
| 20260906183026 | 93 | 147 | 5.2 | 0.0 | 0.00 | 0.00 | 0.00 | 39 | 1007.0 |
| 20260906181539 | 94 | 105 | 4.3 | 0.0 | 0.00 | 0.00 | 0.00 | 38 | 1007.1 |
| 20260906180023 | 93 | 103 | 3.5 | 0.0 | 0.00 | 0.00 | 0.00 | 37 | 1007.3 |
| 20260906174518 | 95 | 128 | 2.6 | 0.0 | 0.00 | 0.00 | 0.00 | 37 | 1007.6 |
| 20260906173016 | 94 | 156 | 3.5 | 0.0 | 0.00 | 0.00 | 0.00 | 39 | 1007.7 |
| 20260906171514 | 93 | 103 | 2.6 | 0.0 | 0.00 | 0.00 | 0.00 | 39 | 1007.7 |
| 20260906170011 | 92 | 134 | 2.6 | 0.0 | 0.00 | 0.00 | 0.00 | 42 | 1007.8 |
| 20260906164508 | 92 | 96 | 1.7 | 0.0 | 0.00 | 0.00 | 0.00 | 43 | 1007.7 |
| 20260906163004 | 92 | 64 | 2.6 | 0.0 | 0.00 | 0.00 | 0.00 | 46 | 1007.7 |
| 20260906161502 | 91 | 63 | 2.6 | 0.0 | 0.00 | 0.00 | 0.00 | 48 | 1007.7 |
| 20260906160058 | 90 | 159 | 1.7 | 0.0 | 0.00 | 0.00 | 0.00 | 49 | 1007.7 |
| 20260906154553 | 90 | 87 | 1.7 | 0.0 | 0.00 | 0.00 | 0.00 | 50 | 1007.7 |
| 20260906153049 | 88 | 88 | 0.9 | 0.0 | 0.00 | 0.00 | 0.00 | 52 | 1007.5 |
| 20260906151549 | 87 | 119 | 0.9 | 0.0 | 0.00 | 0.00 | 0.00 | 55 | 1007.5 |
| 20260906150044 | 85 | 161 | 0.9 | 0.0 | 0.00 | 0.00 | 0.00 | 56 | 1007.5 |
| 20260906144547 | 84 | 105 | 0.9 | 0.0 | 0.00 | 0.00 | 0.00 | 60 | 1007.5 |
| 20260906143034 | 82 | 113 | 1.7 | 0.0 | 0.00 | 0.00 | 0.00 | 62 | 1007.7 |
| 20260906141533 | 79 | 112 | 0.9 | 0.0 | 0.00 | 0.00 | 0.00 | 67 | 1007.6 |
| 20260906140023 | 78 | 96 | 0.9 | 0.0 | 0.00 | 0.00 | 0.00 | 69 | 1007.6 |
| 20260906134528 | 77 | 61 | 0.9 | 0.0 | 0.00 | 0.00 | 0.00 | 71 | 1007.5 |
| 20260906133018 | 76 | 121 | 0.9 | 0.0 | 0.00 | 0.00 | 0.00 | 72 | 1007.3 |
| 20260906131515 | 75 | 115 | 0.9 | 0.0 | 0.00 | 0.00 | 0.00 | 73 | 1007.1 |
| 20260906130013 | 74 | 148 | 0.0 | 0.0 | 0.00 | 0.00 | 0.00 | 73 | 1006.9 |
| 20260906124510 | 74 | 150 | 0.0 | 0.0 | 0.00 | 0.00 | 0.00 | 73 | 1006.8 |
| 20260906123011 | 74 | 150 | 0.0 | 0.0 | 0.00 | 0.00 | 0.00 | 72 | 1006.7 |
| 20260906121506 | 74 | 150 | 0.0 | 0.0 | 0.00 | 0.00 | 0.00 | 72 | 1006.6 |
| 20260906120005 | 75 | 150 | 0.0 | 0.0 | 0.00 | 0.00 | 0.00 | 71 | 1006.6 |
| 20260906114508 | 75 | 149 | 0.0 | 0.0 | 0.00 | 0.00 | 0.00 | 70 | 1006.6 |
| 20260906113001 | 75 | 149 | 0.0 | 0.0 | 0.00 | 0.00 | 0.00 | 69 | 1006.4 |
| 20260906111601 | 76 | 149 | 0.0 | 0.0 | 0.00 | 0.00 | 0.00 | 69 | 1006.5 |
| 20260906110058 | 76 | 149 | 0.0 | 0.0 | 0.00 | 0.00 | 0.00 | 68 | 1006.3 |
| 20260906104603 | 76 | 148 | 0.0 | 0.0 | 0.00 | 0.00 | 0.00 | 67 | 1006.0 |
| 20260906103055 | 77 | 149 | 0.0 | 0.0 | 0.00 | 0.00 | 0.00 | 66 | 1005.9 |
| 20260906101555 | 77 | 150 | 0.0 | 0.0 | 0.00 | 0.00 | 0.00 | 66 | 1006.0 |
| 20260906100052 | 77 | 148 | 0.0 | 0.0 | 0.00 | 0.00 | 0.00 | 66 | 1005.8 |
| 20260906094607 | 77 | 149 | 0.9 | 0.0 | 0.00 | 0.00 | 0.00 | 65 | 1005.8 |
| 20260906093119 | 78 | 148 | 0.9 | 0.0 | 0.00 | 0.00 | 0.00 | 65 | 1005.9 |
| 20260906091548 | 78 | 147 | 0.9 | 0.0 | 0.00 | 0.00 | 0.00 | 64 | 1005.7 |
| 20260906090046 | 78 | 145 | 0.9 | 0.0 | 0.00 | 0.00 | 0.00 | 63 | 1005.8 |
| 20260906084546 | 79 | 146 | 0.9 | 0.0 | 0.00 | 0.00 | 0.00 | 63 | 1005.9 |
| 20260906083048 | 79 | 150 | 1.7 | 0.0 | 0.00 | 0.00 | 0.00 | 62 | 1005.9 |
| 20260906081542 | 79 | 152 | 1.7 | 0.0 | 0.00 | 0.00 | 0.00 | 62 | 1005.8 |
| 20260906080043 | 80 | 148 | 1.7 | 0.0 | 0.00 | 0.00 | 0.00 | 61 | 1005.8 |
| 20260906074539 | 80 | 150 | 2.6 | 0.0 | 0.00 | 0.00 | 0.00 | 60 | 1005.9 |
| 20260906073038 | 80 | 150 | 0.9 | 0.0 | 0.00 | 0.00 | 0.00 | 58 | 1005.9 |
| 20260906071538 | 81 | 160 | 1.7 | 0.0 | 0.00 | 0.00 | 0.00 | 57 | 1006.0 |
| 20260906070034 | 81 | 157 | 2.6 | 0.0 | 0.00 | 0.00 | 0.00 | 57 | 1005.9 |
| 20260906064533 | 82 | 145 | 2.6 | 0.0 | 0.00 | 0.00 | 0.00 | 56 | 1005.9 |
| 20260906063033 | 82 | 138 | 1.7 | 0.0 | 0.00 | 0.00 | 0.00 | 55 | 1006.2 |
| 20260906061530 | 82 | 172 | 2.6 | 0.0 | 0.00 | 0.00 | 0.00 | 55 | 1006.3 |
| 20260906060027 | 82 | 159 | 3.5 | 0.0 | 0.00 | 0.00 | 0.00 | 54 | 1006.4 |
| 20260906054526 | 83 | 136 | 3.5 | 0.0 | 0.00 | 0.00 | 0.00 | 54 | 1006.4 |
| 20260906053024 | 83 | 163 | 4.3 | 0.0 | 0.00 | 0.00 | 0.00 | 53 | 1006.5 |
| 20260906051523 | 83 | 151 | 4.3 | 0.0 | 0.00 | 0.00 | 0.00 | 53 | 1006.4 |
| 20260906050022 | 84 | 159 | 5.2 | 0.0 | 0.00 | 0.00 | 0.00 | 53 | 1006.5 |
| 20260906044519 | 84 | 190 | 6.1 | 0.0 | 0.00 | 0.00 | 0.00 | 53 | 1006.6 |
| 20260906043020 | 85 | 164 | 5.2 | 0.0 | 0.00 | 0.00 | 0.00 | 52 | 1006.5 |
| 20260906041518 | 87 | 156 | 4.3 | 0.0 | 0.00 | 0.00 | 0.00 | 47 | 1006.4 |
| 20260906040024 | 88 | 103 | 4.3 | 0.0 | 0.00 | 0.00 | 0.00 | 44 | 1006.1 |
| 20260906034517 | 88 | 115 | 1.7 | 0.0 | 0.00 | 0.00 | 0.00 | 43 | 1005.8 |
| 20260906033017 | 88 | 116 | 1.7 | 0.0 | 0.00 | 0.00 | 0.00 | 43 | 1005.6 |
| 20260906031516 | 89 | 109 | 1.7 | 0.0 | 0.00 | 0.00 | 0.00 | 42 | 1005.5 |
| 20260906030014 | 89 | 94 | 2.6 | 0.0 | 0.00 | 0.00 | 0.00 | 42 | 1005.2 |
| 20260906024531 | 90 | 109 | 1.7 | 0.0 | 0.00 | 0.00 | 0.00 | 41 | 1004.9 |
| 20260906023019 | 90 | 112 | 1.7 | 0.0 | 0.00 | 0.00 | 0.00 | 40 | 1004.6 |
| 20260906021512 | 90 | 71 | 1.7 | 0.0 | 0.00 | 0.00 | 0.00 | 38 | 1004.5 |
| 20260906020011 | 90 | 113 | 1.7 | 0.0 | 0.00 | 0.00 | 0.00 | 39 | 1004.1 |
| 20260906014512 | 90 | 115 | 2.6 | 0.0 | 0.00 | 0.00 | 0.00 | 41 | 1004.0 |
| 20260906013032 | 92 | 131 | 1.7 | 0.0 | 0.00 | 0.00 | 0.00 | 39 | 1003.8 |
| 20260906011509 | 93 | 98 | 2.6 | 0.0 | 0.00 | 0.00 | 0.00 | 36 | 1003.7 |
| 20260906010009 | 93 | 109 | 2.6 | 0.0 | 0.00 | 0.00 | 0.00 | 35 | 1003.6 |
| 20260906004508 | 95 | 128 | 2.6 | 0.0 | 0.00 | 0.00 | 0.00 | 34 | 1003.5 |
| 20260906003008 | 95 | 104 | 2.6 | 0.0 | 0.00 | 0.00 | 0.00 | 32 | 1003.5 |
| 20260906001507 | 96 | 60 | 3.5 | 0.0 | 0.00 | 0.00 | 0.00 | 32 | 1003.4 |
| 20260906000006 | 97 | 99 | 2.6 | 0.0 | 0.00 | 0.00 | 0.00 | 30 | 1003.2 |
| 20260905234506 | 97 | 114 | 1.7 | 0.0 | 0.00 | 0.00 | 0.00 | 30 | 1003.2 |
| 20260905233006 | 98 | 62 | 2.6 | 0.0 | 0.00 | 0.00 | 0.00 | 30 | 1002.8 |
| 20260905231505 | 98 | 123 | 3.5 | 0.0 | 0.00 | 0.00 | 0.00 | 30 | 1002.9 |
| 20260905230004 | 98 | 74 | 2.6 | 0.0 | 0.00 | 0.00 | 0.00 | 31 | 1002.8 |
| 20260905224502 | 99 | 149 | 3.5 | 0.0 | 0.00 | 0.00 | 0.00 | 30 | 1002.8 |
| 20260905223002 | 99 | 117 | 2.6 | 0.0 | 0.00 | 0.00 | 0.00 | 31 | 1002.8 |
| 20260905221615 | 99 | 170 | 1.7 | 0.0 | 0.00 | 0.00 | 0.00 | 31 | 1002.9 |